createdAt,value
2018-07-02T00:00:07.223Z,16.60
2018-07-02T00:02:35.739Z,16.50
2018-07-02T00:05:04.383Z,16.50
2018-07-02T00:07:32.882Z,16.40
2018-07-02T00:10:01.375Z,16.40
2018-07-02T00:12:29.931Z,16.40
2018-07-02T00:14:58.410Z,16.40
2018-07-02T00:19:55.237Z,16.80
2018-07-02T00:22:23.750Z,16.40
2018-07-02T00:24:52.238Z,16.40
2018-07-02T00:27:20.722Z,16.30
2018-07-02T00:29:49.406Z,16.30
2018-07-02T00:32:17.915Z,16.40
2018-07-02T00:34:46.552Z,16.40
2018-07-02T00:37:15.026Z,16.40
2018-07-02T00:39:43.760Z,16.40
2018-07-02T00:42:12.235Z,16.30
2018-07-02T00:44:40.739Z,16.20
2018-07-02T00:47:09.319Z,16.10
2018-07-02T00:49:37.862Z,16.00
2018-07-02T00:52:06.631Z,16.10
2018-07-02T00:54:35.198Z,16.10
2018-07-02T00:57:03.659Z,16.10
2018-07-02T00:59:32.107Z,16.10
2018-07-02T01:02:00.878Z,16.00
2018-07-02T01:04:29.347Z,16.00
2018-07-02T01:06:57.928Z,16.00
2018-07-02T01:09:26.484Z,15.90
2018-07-02T01:11:55.062Z,15.90
2018-07-02T01:14:23.630Z,15.90
2018-07-02T01:16:52.131Z,15.80
2018-07-02T01:19:20.750Z,15.90
2018-07-02T01:21:49.266Z,15.90
2018-07-02T01:24:17.902Z,15.90
2018-07-02T01:26:46.414Z,15.90
2018-07-02T01:29:15.101Z,15.90
2018-07-02T01:31:43.618Z,15.90
2018-07-02T01:34:12.210Z,16.00
2018-07-02T01:36:40.681Z,15.90
2018-07-02T01:39:10.197Z,15.90
2018-07-02T01:41:38.758Z,15.90
2018-07-02T01:44:07.781Z,15.90
2018-07-02T01:46:36.259Z,15.80
2018-07-02T01:49:05.027Z,15.80
2018-07-02T01:51:33.710Z,15.80
2018-07-02T01:54:02.175Z,15.70
2018-07-02T01:56:30.748Z,15.70
2018-07-02T01:58:59.339Z,15.70
2018-07-02T02:01:27.972Z,15.50
2018-07-02T02:03:56.532Z,15.50
2018-07-02T02:06:25.006Z,15.50
2018-07-02T02:08:53.594Z,15.50
2018-07-02T02:11:22.310Z,15.40
2018-07-02T02:13:50.772Z,15.30
2018-07-02T02:16:19.238Z,15.30
2018-07-02T02:18:47.914Z,15.30
2018-07-02T02:21:16.479Z,15.20
2018-07-02T02:23:45.031Z,15.20
2018-07-02T02:26:13.491Z,15.20
2018-07-02T02:28:42.021Z,15.30
2018-07-02T02:31:10.726Z,15.20
2018-07-02T02:33:39.190Z,15.20
2018-07-02T02:36:07.692Z,15.20
2018-07-02T02:38:36.251Z,15.20
2018-07-02T02:41:04.759Z,15.20
2018-07-02T02:43:33.300Z,15.20
2018-07-02T02:46:01.804Z,15.10
2018-07-02T02:48:31.211Z,15.10
2018-07-02T02:50:59.720Z,15.20
2018-07-02T02:53:28.236Z,15.10
2018-07-02T02:55:56.725Z,15.10
2018-07-02T02:58:25.367Z,15.10
2018-07-02T03:00:53.909Z,15.00
2018-07-02T03:03:22.516Z,15.00
2018-07-02T03:05:50.947Z,15.00
2018-07-02T03:08:19.391Z,15.00
2018-07-02T03:10:47.879Z,14.90
2018-07-02T03:13:16.457Z,14.80
2018-07-02T03:15:44.894Z,14.80
2018-07-02T03:18:13.729Z,14.70
2018-07-02T03:20:42.441Z,14.60
2018-07-02T03:23:11.003Z,14.70
2018-07-02T03:25:39.542Z,14.70
2018-07-02T03:28:08.052Z,14.70
2018-07-02T03:30:36.784Z,14.70
2018-07-02T03:33:05.310Z,14.70
2018-07-02T03:35:33.984Z,14.70
2018-07-02T03:38:02.472Z,14.70
2018-07-02T03:40:31.074Z,14.60
2018-07-02T03:42:59.549Z,14.70
2018-07-02T03:47:56.407Z,14.60
2018-07-02T03:50:24.886Z,14.60
2018-07-02T03:52:53.382Z,14.50
2018-07-02T03:55:22.003Z,14.60
2018-07-02T03:57:50.570Z,14.60
2018-07-02T04:00:19.083Z,14.60
2018-07-02T04:02:47.620Z,14.60
2018-07-02T04:05:16.123Z,14.60
2018-07-02T04:07:44.598Z,14.60
2018-07-02T04:10:13.206Z,14.60
2018-07-02T04:12:41.679Z,14.50
2018-07-02T04:15:10.176Z,14.60
2018-07-02T04:17:38.631Z,14.60
2018-07-02T04:20:07.157Z,14.70
2018-07-02T04:22:35.721Z,14.70
2018-07-02T04:25:04.242Z,14.80
2018-07-02T04:27:32.803Z,14.90
2018-07-02T04:30:01.348Z,14.80
2018-07-02T04:32:29.991Z,14.90
2018-07-02T04:34:58.491Z,14.90
2018-07-02T04:37:27.011Z,15.00
2018-07-02T04:39:55.648Z,15.00
2018-07-02T04:42:24.157Z,15.00
2018-07-02T04:44:52.763Z,15.00
2018-07-02T04:47:21.275Z,15.00
2018-07-02T04:49:49.996Z,15.00
2018-07-02T04:52:18.755Z,15.10
2018-07-02T04:54:47.238Z,15.10
2018-07-02T04:57:15.757Z,15.10
2018-07-02T04:59:44.359Z,15.10
2018-07-02T05:02:12.835Z,15.20
2018-07-02T05:04:41.315Z,15.20
2018-07-02T05:07:09.855Z,15.20
2018-07-02T05:09:38.519Z,15.20
2018-07-02T05:12:07.167Z,15.10
2018-07-02T05:14:35.739Z,15.20
2018-07-02T05:17:04.379Z,15.20
2018-07-02T05:19:33.035Z,15.20
2018-07-02T05:22:01.336Z,15.20
2018-07-02T05:24:29.950Z,15.20
2018-07-02T05:26:58.354Z,15.20
2018-07-02T05:29:27.087Z,15.20
2018-07-02T05:31:55.672Z,15.20
2018-07-02T05:34:24.303Z,15.30
2018-07-02T05:36:53.092Z,15.30
2018-07-02T05:39:21.591Z,15.40
2018-07-02T05:41:50.092Z,15.50
2018-07-02T05:44:18.850Z,15.60
2018-07-02T05:46:47.366Z,15.60
2018-07-02T05:49:15.841Z,15.70
2018-07-02T05:51:44.376Z,15.80
2018-07-02T05:54:12.827Z,15.90
2018-07-02T05:56:41.475Z,16.00
2018-07-02T05:59:09.955Z,16.10
2018-07-02T06:01:38.434Z,16.10
2018-07-02T06:04:06.979Z,16.20
2018-07-02T06:06:35.450Z,16.30
2018-07-02T06:09:06.167Z,16.30
2018-07-02T06:11:34.634Z,16.40
2018-07-02T06:14:03.147Z,16.50
2018-07-02T06:16:31.687Z,16.50
2018-07-02T06:19:00.228Z,16.60
2018-07-02T06:21:28.689Z,16.70
2018-07-02T06:23:57.214Z,16.70
2018-07-02T06:26:26.041Z,16.80
2018-07-02T06:28:54.843Z,16.90
2018-07-02T06:31:23.515Z,16.90
2018-07-02T06:33:51.991Z,17.00
2018-07-02T06:36:20.767Z,17.10
2018-07-02T06:38:49.614Z,17.20
2018-07-02T06:41:18.095Z,17.30
2018-07-02T06:43:46.565Z,17.40
2018-07-02T06:46:15.089Z,17.60
2018-07-02T06:48:43.742Z,17.70
2018-07-02T06:51:12.238Z,17.80
2018-07-02T06:53:40.825Z,17.90
2018-07-02T06:56:09.447Z,18.00
2018-07-02T06:58:38.099Z,18.10
2018-07-02T07:01:06.542Z,18.20
2018-07-02T07:03:35.078Z,18.30
2018-07-02T07:06:03.569Z,18.50
2018-07-02T07:08:32.073Z,18.60
2018-07-02T07:11:00.553Z,18.70
2018-07-02T07:13:29.260Z,18.80
2018-07-02T07:15:57.748Z,18.90
2018-07-02T07:18:26.355Z,19.00
2018-07-02T07:20:54.847Z,19.00
2018-07-02T07:23:23.534Z,19.10
2018-07-02T07:25:52.302Z,19.20
2018-07-02T07:28:20.831Z,19.30
2018-07-02T07:30:49.550Z,19.40
2018-07-02T07:33:18.362Z,19.50
2018-07-02T07:35:47.005Z,19.60
2018-07-02T07:38:15.453Z,19.70
2018-07-02T07:40:44.110Z,19.80
2018-07-02T07:43:12.646Z,19.90
2018-07-02T07:45:41.141Z,20.00
2018-07-02T07:48:09.743Z,20.10
2018-07-02T07:50:38.274Z,20.20
2018-07-02T07:53:06.893Z,20.30
2018-07-02T07:55:35.495Z,20.30
2018-07-02T07:58:04.155Z,20.40
2018-07-02T08:00:32.881Z,20.50
2018-07-02T08:03:01.502Z,20.60
2018-07-02T08:05:30.037Z,20.60
2018-07-02T08:07:58.495Z,20.80
2018-07-02T08:10:27.163Z,20.80
2018-07-02T08:12:55.774Z,20.90
2018-07-02T08:15:24.294Z,21.00
2018-07-02T08:17:52.798Z,21.10
2018-07-02T08:20:21.359Z,21.10
2018-07-02T08:22:50.007Z,21.20
2018-07-02T08:25:18.634Z,21.30
2018-07-02T08:27:47.170Z,21.40
2018-07-02T08:32:44.259Z,21.50
2018-07-02T08:35:12.808Z,21.50
2018-07-02T08:37:41.345Z,21.50
2018-07-02T08:40:09.907Z,21.60
2018-07-02T08:42:38.394Z,21.60
2018-07-02T08:45:07.795Z,21.70
2018-07-02T08:47:36.735Z,21.80
2018-07-02T08:50:05.746Z,21.80
2018-07-02T08:52:34.202Z,21.80
2018-07-02T08:55:02.999Z,21.90
2018-07-02T08:57:31.492Z,21.90
2018-07-02T09:00:00.049Z,21.90
2018-07-02T09:02:28.761Z,22.00
2018-07-02T09:04:57.317Z,22.00
2018-07-02T09:07:25.831Z,22.10
2018-07-02T09:12:23.084Z,22.30
2018-07-02T09:17:19.790Z,22.50
2018-07-02T09:19:48.723Z,22.40
2018-07-02T09:22:17.248Z,22.40
2018-07-02T09:24:45.758Z,22.40
2018-07-02T09:27:14.574Z,22.40
2018-07-02T09:29:43.368Z,22.40
2018-07-02T09:32:11.940Z,22.40
2018-07-02T09:34:40.391Z,22.40
2018-07-02T09:37:09.082Z,22.60
2018-07-02T09:39:37.599Z,22.60
2018-07-02T09:42:06.679Z,22.60
2018-07-02T09:44:35.266Z,22.70
2018-07-02T09:47:03.938Z,22.80
2018-07-02T09:49:32.503Z,22.80
2018-07-02T09:52:01.006Z,22.90
2018-07-02T09:54:29.554Z,22.90
2018-07-02T09:56:58.203Z,22.90
2018-07-02T09:59:26.827Z,23.10
2018-07-02T10:01:55.562Z,23.00
2018-07-02T10:04:24.295Z,23.00
2018-07-02T10:06:52.780Z,23.10
2018-07-02T10:09:21.244Z,23.10
2018-07-02T10:11:49.718Z,23.00
2018-07-02T10:14:18.222Z,23.10
2018-07-02T10:16:46.706Z,23.10
2018-07-02T10:19:15.356Z,23.10
2018-07-02T10:21:44.096Z,23.10
2018-07-02T10:24:12.766Z,23.10
2018-07-02T10:26:41.246Z,23.10
2018-07-02T10:29:09.924Z,23.20
2018-07-02T10:31:38.435Z,23.10
2018-07-02T10:34:06.970Z,23.00
2018-07-02T10:36:35.549Z,22.80
2018-07-02T10:39:06.187Z,22.80
2018-07-02T10:41:34.862Z,22.70
2018-07-02T10:44:03.946Z,22.70
2018-07-02T10:46:32.530Z,22.70
2018-07-02T10:49:01.291Z,22.90
2018-07-02T10:51:29.857Z,22.80
2018-07-02T10:53:58.371Z,22.80
2018-07-02T10:56:26.854Z,23.00
2018-07-02T10:58:55.417Z,23.10
2018-07-02T11:01:23.989Z,23.10
2018-07-02T11:03:52.506Z,23.30
2018-07-02T11:06:20.994Z,23.40
2018-07-02T11:08:49.498Z,23.40
2018-07-02T11:11:18.097Z,23.30
2018-07-02T11:13:46.673Z,23.10
2018-07-02T11:16:15.331Z,23.10
2018-07-02T11:18:43.979Z,23.00
2018-07-02T11:23:40.926Z,23.20
2018-07-02T11:26:09.430Z,23.30
2018-07-02T11:28:37.999Z,23.20
2018-07-02T11:31:06.696Z,23.20
2018-07-02T11:33:35.222Z,23.30
2018-07-02T11:36:03.794Z,23.10
2018-07-02T11:38:32.647Z,23.10
2018-07-02T11:43:29.610Z,23.30
2018-07-02T11:45:58.285Z,23.20
2018-07-02T11:48:26.993Z,23.20
2018-07-02T11:50:55.535Z,23.20
2018-07-02T11:53:24.211Z,23.30
2018-07-02T11:55:52.735Z,23.30
2018-07-02T11:58:21.226Z,23.40
2018-07-02T12:00:50.041Z,23.60
2018-07-02T12:03:18.677Z,23.90
2018-07-02T12:05:47.199Z,23.60
2018-07-02T12:08:15.804Z,23.70
2018-07-02T12:10:44.434Z,23.50
2018-07-02T12:13:13.095Z,23.40
2018-07-02T12:15:41.738Z,23.30
2018-07-02T12:18:10.510Z,23.30
2018-07-02T12:20:38.993Z,23.50
2018-07-02T12:23:07.646Z,23.50
2018-07-02T12:28:04.747Z,23.40
2018-07-02T12:30:33.260Z,23.50
2018-07-02T12:33:01.819Z,23.40
2018-07-02T12:35:30.407Z,23.40
2018-07-02T12:37:58.917Z,23.30
2018-07-02T12:40:27.547Z,23.10
2018-07-02T12:42:56.091Z,23.00
2018-07-02T12:45:24.820Z,23.00
2018-07-02T12:47:54.576Z,23.00
2018-07-02T12:50:23.283Z,23.00
2018-07-02T12:52:51.966Z,23.00
2018-07-02T12:55:20.855Z,23.20
2018-07-02T12:57:49.516Z,23.20
2018-07-02T13:00:18.102Z,23.20
2018-07-02T13:02:46.619Z,23.10
2018-07-02T13:05:15.241Z,23.00
2018-07-02T13:07:43.785Z,22.90
2018-07-02T13:10:12.335Z,22.80
2018-07-02T13:12:40.845Z,23.00
2018-07-02T13:15:09.414Z,23.00
2018-07-02T13:17:37.974Z,23.00
2018-07-02T13:20:06.755Z,22.80
2018-07-02T13:22:35.303Z,22.60
2018-07-02T13:25:03.904Z,22.80
2018-07-02T13:27:32.383Z,23.00
2018-07-02T13:30:00.958Z,23.00
2018-07-02T13:32:29.415Z,23.00
2018-07-02T13:34:58.127Z,23.00
2018-07-02T13:37:26.632Z,23.10
2018-07-02T13:39:55.294Z,23.10
2018-07-02T13:42:23.871Z,23.00
2018-07-02T13:44:52.443Z,22.70
2018-07-02T13:47:20.983Z,22.70
2018-07-02T13:49:49.706Z,22.80
2018-07-02T13:52:18.519Z,22.90
2018-07-02T13:54:47.077Z,22.80
2018-07-02T13:57:15.673Z,22.80
2018-07-02T13:59:44.227Z,23.00
2018-07-02T14:02:12.730Z,23.00
2018-07-02T14:04:41.358Z,22.90
2018-07-02T14:07:10.008Z,22.80
2018-07-02T14:09:38.651Z,22.80
2018-07-02T14:12:07.221Z,23.00
2018-07-02T14:14:35.778Z,22.80
2018-07-02T14:17:04.318Z,22.80
2018-07-02T14:19:32.848Z,22.70
2018-07-02T14:22:01.405Z,22.60
2018-07-02T14:24:30.017Z,22.50
2018-07-02T14:26:58.551Z,22.60
2018-07-02T14:29:27.016Z,22.60
2018-07-02T14:31:55.792Z,22.50
2018-07-02T14:34:24.292Z,22.60
2018-07-02T14:36:52.815Z,22.60
2018-07-02T14:39:21.439Z,22.60
2018-07-02T14:41:49.952Z,22.60
2018-07-02T14:44:18.548Z,22.70
2018-07-02T14:46:47.159Z,22.70
2018-07-02T14:49:15.718Z,22.50
2018-07-02T14:51:44.446Z,22.70
2018-07-02T14:54:13.119Z,22.70
2018-07-02T14:56:41.885Z,22.70
2018-07-02T14:59:10.409Z,22.50
2018-07-02T15:04:07.280Z,22.30
2018-07-02T15:06:36.901Z,22.20
2018-07-02T15:09:09.621Z,22.20
2018-07-02T15:11:38.616Z,22.20
2018-07-02T15:14:07.333Z,22.10
2018-07-02T15:16:36.111Z,22.20
2018-07-02T15:19:04.665Z,22.10
2018-07-02T15:21:33.728Z,22.10
2018-07-02T15:24:02.457Z,22.10
2018-07-02T15:26:30.949Z,22.10
2018-07-02T15:28:59.564Z,22.00
2018-07-02T15:31:28.116Z,22.10
2018-07-02T15:33:56.791Z,22.40
2018-07-02T15:36:25.326Z,22.40
2018-07-02T15:38:53.859Z,22.30
2018-07-02T15:41:22.430Z,22.30
2018-07-02T15:43:51.122Z,22.30
2018-07-02T15:46:19.670Z,22.40
2018-07-02T15:48:48.260Z,22.50
2018-07-02T15:51:17.013Z,22.30
2018-07-02T15:53:45.495Z,22.40
2018-07-02T15:56:14.037Z,22.60
2018-07-02T15:58:42.687Z,22.70
2018-07-02T16:01:11.271Z,22.60
2018-07-02T16:03:39.756Z,22.50
2018-07-02T16:06:08.372Z,22.30
2018-07-02T16:08:36.866Z,22.30
2018-07-02T16:11:05.558Z,22.20
2018-07-02T16:13:34.084Z,22.20
2018-07-02T16:16:02.719Z,22.20
2018-07-02T16:18:31.265Z,22.00
2018-07-02T16:20:59.903Z,22.00
2018-07-02T16:23:28.522Z,22.10
2018-07-02T16:25:57.069Z,22.20
2018-07-02T16:28:25.967Z,22.20
2018-07-02T16:30:54.510Z,22.10
2018-07-02T16:33:23.296Z,22.00
2018-07-02T16:35:51.825Z,22.00
2018-07-02T16:38:20.402Z,22.00
2018-07-02T16:40:49.033Z,21.90
2018-07-02T16:43:17.547Z,21.90
2018-07-02T16:45:46.059Z,21.80
2018-07-02T16:48:14.691Z,21.80
2018-07-02T16:50:43.187Z,21.80
2018-07-02T16:53:11.726Z,21.80
2018-07-02T16:55:40.650Z,21.80
2018-07-02T16:58:09.264Z,21.80
2018-07-02T17:00:37.795Z,21.80
2018-07-02T17:03:07.209Z,21.90
2018-07-02T17:05:35.771Z,21.90
2018-07-02T17:08:04.619Z,22.00
2018-07-02T17:10:33.280Z,22.10
2018-07-02T17:13:01.855Z,22.20
2018-07-02T17:15:30.519Z,22.10
2018-07-02T17:17:59.315Z,21.90
2018-07-02T17:20:27.911Z,21.90
2018-07-02T17:25:24.738Z,21.90
2018-07-02T17:27:53.295Z,21.80
2018-07-02T17:30:21.900Z,21.70
2018-07-02T17:32:50.460Z,21.60
2018-07-02T17:35:19.184Z,21.60
2018-07-02T17:37:47.979Z,21.60
2018-07-02T17:40:16.572Z,21.60
2018-07-02T17:42:45.128Z,21.70
2018-07-02T17:45:13.656Z,21.60
2018-07-02T17:47:42.343Z,21.60
2018-07-02T17:50:11.093Z,21.50
2018-07-02T17:52:39.639Z,21.50
2018-07-02T17:55:08.230Z,21.60
2018-07-02T17:57:36.742Z,21.50
2018-07-02T18:00:06.179Z,21.50
2018-07-02T18:02:34.664Z,21.40
2018-07-02T18:05:03.456Z,21.40
2018-07-02T18:07:32.081Z,21.40
2018-07-02T18:10:00.591Z,21.40
2018-07-02T18:12:29.115Z,21.40
2018-07-02T18:14:57.740Z,21.30
2018-07-02T18:17:26.274Z,21.30
2018-07-02T18:19:54.877Z,21.30
2018-07-02T18:22:23.503Z,21.30
2018-07-02T18:24:52.079Z,21.30
2018-07-02T18:29:49.147Z,21.20
2018-07-02T18:32:17.740Z,21.20
2018-07-02T18:34:46.399Z,21.10
2018-07-02T18:37:15.147Z,21.10
2018-07-02T18:39:43.775Z,21.10
2018-07-02T18:42:12.295Z,21.00
2018-07-02T18:44:41.328Z,21.00
2018-07-02T18:47:10.029Z,21.00
2018-07-02T18:49:38.914Z,20.90
2018-07-02T18:52:07.535Z,20.90
2018-07-02T18:54:36.207Z,20.90
2018-07-02T18:57:05.051Z,20.90
2018-07-02T18:59:33.682Z,20.80
2018-07-02T19:02:02.299Z,20.80
2018-07-02T19:04:30.900Z,20.80
2018-07-02T19:06:59.430Z,20.70
2018-07-02T19:09:28.119Z,20.70
2018-07-02T19:11:56.759Z,20.70
2018-07-02T19:14:25.312Z,20.70
2018-07-02T19:16:53.866Z,20.60
2018-07-02T19:19:22.374Z,20.60
2018-07-02T19:21:51.120Z,20.60
2018-07-02T19:24:19.811Z,20.60
2018-07-02T19:26:48.415Z,20.60
2018-07-02T19:29:17.048Z,20.60
2018-07-02T19:31:45.580Z,20.50
2018-07-02T19:34:14.084Z,20.50
2018-07-02T19:36:42.886Z,20.40
2018-07-02T19:39:13.498Z,20.40
2018-07-02T19:41:42.081Z,20.30
2018-07-02T19:44:11.347Z,20.30
2018-07-02T19:46:40.034Z,20.20
2018-07-02T19:49:08.807Z,20.20
2018-07-02T19:51:37.396Z,20.20
2018-07-02T19:54:05.983Z,20.10
2018-07-02T19:56:34.624Z,20.10
2018-07-02T19:59:03.372Z,20.00
2018-07-02T20:01:31.931Z,20.00
2018-07-02T20:06:28.592Z,19.90
2018-07-02T20:08:57.180Z,19.80
2018-07-02T20:11:26.133Z,19.80
2018-07-02T20:13:54.812Z,19.80
2018-07-02T20:16:23.355Z,19.70
2018-07-02T20:18:52.008Z,19.60
2018-07-02T20:21:20.541Z,19.50
2018-07-02T20:23:49.135Z,19.50
2018-07-02T20:26:17.695Z,19.50
2018-07-02T20:28:46.188Z,19.40
2018-07-02T20:31:14.788Z,19.30
2018-07-02T20:33:43.363Z,19.30
2018-07-02T20:36:11.999Z,19.20
2018-07-02T20:38:40.539Z,19.20
2018-07-02T20:41:09.297Z,19.10
2018-07-02T20:43:37.980Z,19.10
2018-07-02T20:46:06.615Z,19.00
2018-07-02T20:48:35.099Z,19.00
2018-07-02T20:51:03.643Z,18.90
2018-07-02T20:53:32.236Z,18.90
2018-07-02T20:56:00.728Z,18.90
2018-07-02T20:58:29.385Z,19.00
2018-07-02T21:00:57.897Z,18.90
2018-07-02T21:03:26.445Z,18.80
2018-07-02T21:05:55.015Z,18.70
2018-07-02T21:08:23.724Z,18.70
2018-07-02T21:10:52.199Z,18.60
2018-07-02T21:13:20.798Z,18.60
2018-07-02T21:15:49.361Z,18.60
2018-07-02T21:18:17.899Z,18.60
2018-07-02T21:20:46.605Z,18.60
2018-07-02T21:23:15.216Z,18.60
2018-07-02T21:25:43.727Z,18.50
2018-07-02T21:28:12.509Z,18.40
2018-07-02T21:30:41.026Z,18.30
2018-07-02T21:33:09.680Z,18.20
2018-07-02T21:35:38.520Z,18.20
2018-07-02T21:38:07.155Z,18.10
2018-07-02T21:40:35.716Z,18.10
2018-07-02T21:43:04.359Z,18.00
2018-07-02T21:45:32.971Z,18.00
2018-07-02T21:48:01.499Z,17.90
2018-07-02T21:50:30.076Z,17.80
2018-07-02T21:52:58.677Z,17.70
2018-07-02T21:55:27.338Z,17.60
2018-07-02T21:57:55.957Z,17.60
2018-07-02T22:00:24.540Z,17.50
2018-07-02T22:02:53.052Z,17.50
2018-07-02T22:05:21.880Z,17.50
2018-07-02T22:07:50.634Z,17.40
2018-07-02T22:10:19.227Z,17.30
2018-07-02T22:12:47.737Z,17.30
2018-07-02T22:15:16.278Z,17.30
2018-07-02T22:17:44.850Z,17.30
2018-07-02T22:20:13.400Z,17.20
2018-07-02T22:22:41.869Z,17.20
2018-07-02T22:25:10.505Z,17.20
2018-07-02T22:27:39.032Z,17.20
2018-07-02T22:30:07.670Z,17.20
2018-07-02T22:32:36.191Z,17.10
2018-07-02T22:35:04.727Z,17.00
2018-07-02T22:37:33.254Z,17.00
2018-07-02T22:40:01.923Z,17.00
2018-07-02T22:42:30.450Z,17.00
2018-07-02T22:44:59.082Z,16.90
2018-07-02T22:47:27.796Z,16.70
2018-07-02T22:49:56.462Z,16.70
2018-07-02T22:52:25.075Z,16.60
2018-07-02T22:54:53.554Z,16.50
2018-07-02T22:57:22.244Z,16.40
2018-07-02T22:59:50.768Z,16.40
2018-07-02T23:02:19.482Z,16.30
2018-07-02T23:07:16.340Z,16.30
2018-07-02T23:09:45.047Z,16.30
2018-07-02T23:12:13.566Z,16.40
2018-07-02T23:14:42.078Z,16.30
2018-07-02T23:17:10.611Z,16.30
2018-07-02T23:19:39.310Z,16.30
2018-07-02T23:22:07.887Z,16.30
2018-07-02T23:24:36.598Z,16.30
2018-07-02T23:27:05.054Z,16.20
2018-07-02T23:29:33.974Z,16.20
2018-07-02T23:32:02.457Z,16.10
2018-07-02T23:34:31.011Z,16.10
2018-07-02T23:36:59.570Z,16.00
2018-07-02T23:39:28.036Z,16.00
2018-07-02T23:41:56.640Z,15.90
2018-07-02T23:44:25.238Z,15.80
2018-07-02T23:46:53.943Z,15.70
2018-07-02T23:49:22.402Z,15.60
2018-07-02T23:51:51.019Z,15.60
2018-07-02T23:56:47.739Z,15.50
2018-07-02T23:59:16.346Z,15.50
